Time;durP1;ratioP1;P1;durP2;ratioP2;P2;SDS_P1;SDS_P2;PMS_P1;PMS_P2;Temp;Humidity;BMP_temperature;BMP_pressure;BME280_temperature;BME280_humidity;BME280_pressure;Samples;Min_cycle;Max_cycle;Signal;HPM_P1;HPM_P2
2021/09/15 00:01:30;;;;;;;14.75;10.10;;;21.80;91.60;;;;;;5052290;28;20048;-75
2021/09/15 00:03:56;;;;;;;14.18;10.32;;;21.80;91.60;;;;;;5052217;28;20025;-75
2021/09/15 00:06:22;;;;;;;16.08;9.68;;;21.80;91.70;;;;;;5050802;28;20470;-74
2021/09/15 00:08:48;;;;;;;11.10;9.85;;;21.80;91.90;;;;;;5052403;28;20029;-75
2021/09/15 00:11:17;;;;;;;16.08;10.32;;;21.70;92.00;;;;;;5052198;28;20035;-75
2021/09/15 00:13:43;;;;;;;12.13;9.93;;;21.70;92.20;;;;;;5052105;28;20487;-75
2021/09/15 00:16:09;;;;;;;10.65;9.02;;;21.70;92.20;;;;;;5054597;28;20096;-75
2021/09/15 00:18:34;;;;;;;15.20;10.85;;;21.70;92.20;;;;;;5051996;28;20083;-74
2021/09/15 00:21:00;;;;;;;17.58;11.25;;;21.70;92.20;;;;;;5050687;28;20025;-75
2021/09/15 00:23:26;;;;;;;18.70;11.18;;;21.70;92.20;;;;;;5052123;28;20100;-75
2021/09/15 00:25:52;;;;;;;15.35;10.00;;;21.70;92.30;;;;;;5050629;28;20483;-74
2021/09/15 00:28:17;;;;;;;15.18;10.75;;;21.70;92.30;;;;;;5051801;28;20028;-75
2021/09/15 00:30:43;;;;;;;16.30;9.98;;;21.70;92.40;;;;;;5051963;28;20099;-75
2021/09/15 00:33:09;;;;;;;17.75;11.40;;;21.70;92.40;;;;;;5051652;28;20082;-75
2021/09/15 00:35:35;;;;;;;16.08;10.85;;;21.70;92.50;;;;;;5051684;28;20143;-75
2021/09/15 00:38:00;;;;;;;13.85;10.60;;;21.60;92.50;;;;;;5051769;28;20025;-75
2021/09/15 00:40:26;;;;;;;14.77;10.88;;;21.60;92.50;;;;;;5051651;28;20017;-75
2021/09/15 00:42:52;;;;;;;14.10;9.68;;;21.60;92.60;;;;;;5051792;28;20021;-75
2021/09/15 00:45:19;;;;;;;14.85;10.45;;;21.70;92.70;;;;;;5051854;28;20386;-75
2021/09/15 00:47:44;;;;;;;16.30;10.70;;;21.60;92.70;;;;;;5051553;28;20068;-75
2021/09/15 00:50:11;;;;;;;13.70;10.88;;;21.60;92.80;;;;;;5051617;28;20052;-75
2021/09/15 00:52:37;;;;;;;12.68;10.98;;;21.60;92.80;;;;;;5051142;28;20056;-75
2021/09/15 00:55:03;;;;;;;18.92;10.93;;;21.60;92.80;;;;;;5050152;28;20495;-75
2021/09/15 00:57:28;;;;;;;16.10;11.55;;;21.60;92.90;;;;;;5051052;28;20025;-75
2021/09/15 00:59:55;;;;;;;14.02;10.25;;;21.60;93.00;;;;;;5051323;28;20390;-75
2021/09/15 01:02:20;;;;;;;13.50;11.13;;;21.50;93.00;;;;;;5052272;28;20032;-75
2021/09/15 01:04:47;;;;;;;14.90;10.77;;;21.50;93.00;;;;;;5037818;28;20030;-74
2021/09/15 01:07:13;;;;;;;19.45;10.90;;;21.60;93.10;;;;;;5032212;28;20037;-75
2021/09/15 01:09:39;;;;;;;16.33;11.25;;;21.50;93.20;;;;;;5031574;28;20104;-75
2021/09/15 01:12:10;;;;;;;14.45;11.00;;;21.50;93.40;;;;;;5031798;28;20033;-75
2021/09/15 01:14:39;;;;;;;17.30;11.57;;;21.50;93.50;;;;;;5036448;28;20057;-75
2021/09/15 01:17:05;;;;;;;16.48;11.07;;;21.50;93.50;;;;;;5036523;28;20025;-75
2021/09/15 01:19:30;;;;;;;15.40;11.13;;;21.50;93.60;;;;;;5036369;28;20571;-74
2021/09/15 01:22:00;;;;;;;15.95;11.43;;;21.40;93.50;;;;;;5035850;28;20029;-74
2021/09/15 01:24:28;;;;;;;18.80;12.82;;;21.40;93.60;;;;;;5035842;28;20033;-75
2021/09/15 01:26:54;;;;;;;15.63;10.20;;;21.40;93.70;;;;;;5035825;28;20025;-75
2021/09/15 01:29:21;;;;;;;13.55;10.82;;;21.40;93.80;;;;;;5034377;28;20029;-75
2021/09/15 01:31:58;;;;;;;18.73;11.50;;;21.40;93.80;;;;;;5035256;28;20064;-75
2021/09/15 01:34:25;;;;;;;20.55;11.98;;;21.30;93.90;;;;;;5046829;28;20068;-75
2021/09/15 01:36:51;;;;;;;15.27;11.20;;;21.30;93.90;;;;;;5055345;28;20021;-75
2021/09/15 01:39:17;;;;;;;15.13;11.63;;;21.40;93.90;;;;;;5055474;28;20025;-75
2021/09/15 01:41:42;;;;;;;15.15;11.52;;;21.40;93.80;;;;;;5055100;28;20021;-74
2021/09/15 01:44:08;;;;;;;13.65;10.77;;;21.40;93.70;;;;;;5055291;28;20067;-75
2021/09/15 01:46:34;;;;;;;19.85;10.75;;;21.40;93.70;;;;;;5055097;28;20029;-75
2021/09/15 01:48:59;;;;;;;13.85;10.85;;;21.40;93.80;;;;;;5054972;28;20029;-75
2021/09/15 01:51:25;;;;;;;15.27;10.43;;;21.40;93.70;;;;;;5055010;28;20104;-75
2021/09/15 01:53:51;;;;;;;15.77;10.93;;;21.40;93.70;;;;;;5055048;28;20475;-75
2021/09/15 01:56:16;;;;;;;14.70;10.45;;;21.40;93.70;;;;;;5053580;28;20048;-75
2021/09/15 01:58:42;;;;;;;15.40;11.05;;;21.40;93.60;;;;;;5054882;28;20025;-75
2021/09/15 02:01:08;;;;;;;13.57;10.10;;;21.40;93.60;;;;;;5054886;28;20029;-75
2021/09/15 02:03:33;;;;;;;15.27;11.05;;;21.40;93.60;;;;;;5054551;28;20023;-75
2021/09/15 02:05:59;;;;;;;12.15;9.82;;;21.40;93.60;;;;;;5054809;28;20037;-75
2021/09/15 02:08:25;;;;;;;15.82;11.30;;;21.40;93.60;;;;;;5057057;28;20049;-74
2021/09/15 02:10:51;;;;;;;13.00;9.60;;;21.30;93.70;;;;;;5053284;28;20029;-75
2021/09/15 02:13:17;;;;;;;15.70;10.65;;;21.30;93.70;;;;;;5054571;28;20036;-75
2021/09/15 02:15:43;;;;;;;13.95;10.27;;;21.30;93.60;;;;;;5054355;28;20025;-75
2021/09/15 02:18:08;;;;;;;15.65;10.93;;;21.30;93.80;;;;;;5054354;28;20021;-75
2021/09/15 02:20:35;;;;;;;14.93;10.07;;;21.30;93.80;;;;;;5054478;28;20429;-74
2021/09/15 02:23:02;;;;;;;12.60;9.27;;;21.30;93.80;;;;;;5054358;28;20021;-75
2021/09/15 02:25:28;;;;;;;15.43;9.88;;;21.30;93.80;;;;;;5054154;28;20568;-75
2021/09/15 02:27:54;;;;;;;12.15;9.80;;;21.20;93.80;;;;;;5054328;28;20025;-75
2021/09/15 02:30:19;;;;;;;17.70;9.60;;;21.20;93.80;;;;;;5054091;28;20388;-75
2021/09/15 02:32:45;;;;;;;16.25;9.63;;;21.20;93.80;;;;;;5052821;28;20025;-75
2021/09/15 02:35:12;;;;;;;14.32;10.35;;;21.20;93.80;;;;;;5054213;28;20029;-75
2021/09/15 02:37:38;;;;;;;14.68;10.05;;;21.20;93.90;;;;;;5053939;28;20025;-75
2021/09/15 02:40:05;;;;;;;13.15;10.55;;;21.20;94.00;;;;;;5052706;28;20026;-75
2021/09/15 02:42:31;;;;;;;13.23;9.77;;;21.10;94.10;;;;;;5054076;28;20106;-75
2021/09/15 02:44:57;;;;;;;19.23;10.02;;;21.10;94.10;;;;;;5052856;28;20451;-74
2021/09/15 02:47:22;;;;;;;14.77;9.75;;;21.10;94.10;;;;;;5053781;28;20028;-75
2021/09/15 02:49:48;;;;;;;14.88;10.77;;;21.10;94.20;;;;;;5052721;28;20025;-75
2021/09/15 02:52:14;;;;;;;15.82;9.85;;;21.10;94.20;;;;;;5053838;28;20104;-75
2021/09/15 02:54:40;;;;;;;15.30;9.77;;;21.10;94.10;;;;;;5053679;28;20040;-75
2021/09/15 02:57:05;;;;;;;14.05;10.20;;;21.20;94.00;;;;;;5053688;28;20028;-75
2021/09/15 02:59:31;;;;;;;13.43;10.68;;;21.20;94.10;;;;;;5053645;28;20045;-75
2021/09/15 03:01:57;;;;;;;14.02;10.57;;;21.20;94.30;;;;;;5053695;28;20100;-75
2021/09/15 03:04:23;;;;;;;14.48;10.07;;;21.10;94.20;;;;;;5053662;28;20108;-75
2021/09/15 03:06:49;;;;;;;15.18;9.57;;;21.10;94.30;;;;;;5053433;28;20436;-75
2021/09/15 03:09:14;;;;;;;13.18;9.65;;;21.10;94.20;;;;;;5053586;28;20487;-75
2021/09/15 03:11:40;;;;;;;21.40;11.02;;;21.10;94.30;;;;;;5053253;28;20108;-75
2021/09/15 03:14:06;;;;;;;11.82;9.80;;;21.10;94.20;;;;;;5053264;28;20025;-75
2021/09/15 03:16:32;;;;;;;13.45;9.88;;;21.10;94.30;;;;;;5053429;28;20402;-75
2021/09/15 03:18:57;;;;;;;12.27;9.63;;;21.10;94.30;;;;;;5053376;28;20382;-75
2021/09/15 03:21:23;;;;;;;16.10;10.40;;;21.10;94.30;;;;;;5053114;28;20383;-75
2021/09/15 03:23:49;;;;;;;13.48;9.80;;;21.10;94.70;;;;;;5053308;28;20055;-74
2021/09/15 03:26:14;;;;;;;15.88;9.93;;;21.10;94.30;;;;;;5051734;28;20364;-75
2021/09/15 03:28:40;;;;;;;14.20;10.57;;;21.10;94.30;;;;;;5053041;28;20036;-75
2021/09/15 03:31:06;;;;;;;11.88;9.30;;;21.10;94.30;;;;;;5053043;28;20067;-74
2021/09/15 03:33:32;;;;;;;18.23;9.93;;;21.00;94.30;;;;;;5052769;28;20489;-75
2021/09/15 03:35:57;;;;;;;11.93;9.02;;;21.10;94.70;;;;;;5052501;28;20096;-74
2021/09/15 03:38:23;;;;;;;12.77;9.40;;;21.10;94.40;;;;;;5053087;28;20502;-75
2021/09/15 03:40:49;;;;;;;12.35;8.80;;;21.10;94.40;;;;;;5052917;28;20252;-75
2021/09/15 03:43:14;;;;;;;10.77;9.25;;;21.10;94.30;;;;;;5052830;28;20116;-75
2021/09/15 03:45:40;;;;;;;13.40;9.98;;;21.10;94.30;;;;;;5052695;28;20032;-75
2021/09/15 03:48:06;;;;;;;13.65;9.45;;;21.10;94.30;;;;;;5052985;28;20025;-75
2021/09/15 03:50:31;;;;;;;11.98;9.13;;;21.10;94.30;;;;;;5052780;28;20036;-75
2021/09/15 03:52:57;;;;;;;14.20;9.65;;;21.00;94.30;;;;;;5051331;28;20029;-75
2021/09/15 03:55:23;;;;;;;14.40;9.77;;;21.10;94.30;;;;;;5051249;28;20021;-75
2021/09/15 03:57:49;;;;;;;11.48;9.23;;;21.10;94.30;;;;;;5052537;28;20446;-75
2021/09/15 04:00:14;;;;;;;11.02;9.40;;;21.10;94.40;;;;;;5052444;28;20084;-75
2021/09/15 04:02:40;;;;;;;14.13;9.73;;;21.00;94.40;;;;;;5052496;28;20395;-75
2021/09/15 04:05:06;;;;;;;11.38;8.68;;;21.00;94.50;;;;;;5067731;28;20367;-75
2021/09/15 04:07:32;;;;;;;13.85;9.73;;;21.00;94.50;;;;;;5072091;28;20048;-75
2021/09/15 04:09:58;;;;;;;13.15;9.73;;;21.10;94.50;;;;;;5071051;28;20525;-75
2021/09/15 04:12:23;;;;;;;15.48;8.95;;;21.00;94.80;;;;;;5070899;28;20020;-75
2021/09/15 04:14:49;;;;;;;12.02;8.75;;;21.00;94.60;;;;;;5071944;28;20287;-75
2021/09/15 04:17:15;;;;;;;11.55;8.43;;;21.00;94.70;;;;;;5071960;28;20047;-75
2021/09/15 04:19:41;;;;;;;14.02;9.48;;;21.00;94.60;;;;;;5072062;28;20056;-75
2021/09/15 04:22:12;;;;;;;12.65;9.52;;;21.00;94.70;;;;;;5072143;28;20016;-75
2021/09/15 04:32:44;;;;;;;12.38;9.10;;;20.90;94.90;;;;;;5072210;28;20051;-75
2021/09/15 04:35:11;;;;;;;13.57;10.52;;;20.90;95.30;;;;;;5053728;28;20418;-75
2021/09/15 04:37:36;;;;;;;14.18;9.15;;;20.90;95.00;;;;;;5050646;28;20028;-75
2021/09/15 04:40:03;;;;;;;23.30;9.07;;;20.90;95.00;;;;;;5050547;28;20028;-75
2021/09/15 04:42:28;;;;;;;11.98;8.07;;;20.90;95.10;;;;;;5050532;28;20053;-74
2021/09/15 04:44:54;;;;;;;14.05;9.00;;;21.00;95.00;;;;;;5051792;28;20044;-75
2021/09/15 04:47:20;;;;;;;9.75;8.38;;;21.00;95.10;;;;;;5050927;28;20033;-74
2021/09/15 04:49:45;;;;;;;11.63;8.68;;;20.90;95.10;;;;;;5051784;28;20107;-75
2021/09/15 04:52:11;;;;;;;12.15;9.13;;;20.90;95.20;;;;;;5050251;28;20267;-75
2021/09/15 04:54:37;;;;;;;13.95;9.52;;;20.90;95.30;;;;;;5051638;28;20394;-75
2021/09/15 04:57:03;;;;;;;13.65;9.13;;;20.90;95.20;;;;;;5051630;28;20501;-75
2021/09/15 04:59:28;;;;;;;11.95;9.93;;;21.00;95.20;;;;;;5050359;28;20035;-75
2021/09/15 05:01:54;;;;;;;15.32;9.65;;;20.90;95.20;;;;;;5050342;28;20055;-74
2021/09/15 05:04:20;;;;;;;9.98;8.70;;;20.90;95.30;;;;;;5039851;28;20280;-74
2021/09/15 05:06:46;;;;;;;14.35;9.80;;;20.90;95.40;;;;;;5042105;28;20029;-75
2021/09/15 05:09:12;;;;;;;12.90;10.05;;;20.90;95.40;;;;;;5043748;28;20040;-74
2021/09/15 05:11:37;;;;;;;13.65;9.63;;;20.90;95.30;;;;;;5036659;28;20036;-74
2021/09/15 05:14:03;;;;;;;14.63;9.40;;;21.00;95.40;;;;;;5031468;28;20072;-74
2021/09/15 05:16:31;;;;;;;12.90;9.00;;;21.00;95.60;;;;;;5031449;28;20030;-75
2021/09/15 05:18:57;;;;;;;17.20;9.63;;;21.00;95.40;;;;;;5030151;28;20147;-75
2021/09/15 05:21:23;;;;;;;14.77;8.80;;;21.00;95.40;;;;;;5029072;28;20554;-75
2021/09/15 05:23:48;;;;;;;12.70;8.93;;;21.10;95.30;;;;;;5029667;28;20385;-74
2021/09/15 05:26:14;;;;;;;17.58;9.48;;;21.10;95.60;;;;;;5029459;28;20391;-74
2021/09/15 05:28:40;;;;;;;11.68;9.48;;;21.10;95.20;;;;;;5030436;28;20057;-75
2021/09/15 05:31:05;;;;;;;12.88;9.13;;;21.10;95.30;;;;;;5029660;28;20509;-75
2021/09/15 05:33:31;;;;;;;16.48;8.70;;;21.20;95.30;;;;;;5035960;28;20033;-75
2021/09/15 05:35:57;;;;;;;12.85;9.25;;;21.20;95.30;;;;;;5051797;28;20086;-75
2021/09/15 05:38:25;;;;;;;11.35;8.88;;;21.20;95.30;;;;;;5051754;28;20048;-75
2021/09/15 05:40:51;;;;;;;16.95;9.07;;;21.20;95.40;;;;;;5051807;28;20483;-75
2021/09/15 05:43:17;;;;;;;13.35;9.27;;;21.20;95.30;;;;;;5051569;28;20056;-75
2021/09/15 05:45:42;;;;;;;11.85;8.77;;;21.20;95.40;;;;;;5051801;28;20502;-75
2021/09/15 05:48:08;;;;;;;10.90;8.48;;;21.20;95.40;;;;;;5051981;28;20031;-75
2021/09/15 05:50:34;;;;;;;15.50;10.02;;;21.20;95.30;;;;;;5051877;28;20029;-75
2021/09/15 05:52:59;;;;;;;14.77;8.68;;;21.30;95.20;;;;;;5051821;28;20576;-75
2021/09/15 05:55:25;;;;;;;11.15;8.82;;;21.40;95.20;;;;;;5052149;28;20025;-75
2021/09/15 05:57:51;;;;;;;12.55;8.70;;;21.40;95.20;;;;;;5052147;28;20402;-75
2021/09/15 06:00:17;;;;;;;12.40;8.48;;;21.40;95.30;;;;;;5053768;28;20029;-75
2021/09/15 06:02:43;;;;;;;14.75;8.32;;;21.50;95.40;;;;;;5065459;28;20363;-75
2021/09/15 06:05:09;;;;;;;12.93;9.43;;;21.50;95.90;;;;;;5056797;28;20119;-75
2021/09/15 06:07:34;;;;;;;15.77;9.00;;;21.50;96.10;;;;;;5054162;28;20601;-75
2021/09/15 06:10:00;;;;;;;14.00;8.85;;;21.50;96.10;;;;;;5055835;28;20441;-75
2021/09/15 06:12:26;;;;;;;11.85;9.05;;;21.50;96.00;;;;;;5055757;28;20021;-75
2021/09/15 06:14:51;;;;;;;14.75;8.80;;;21.50;96.50;;;;;;5054691;28;20033;-75
2021/09/15 06:17:17;;;;;;;12.65;7.57;;;21.50;96.10;;;;;;5055413;28;20032;-74
2021/09/15 06:19:43;;;;;;;8.75;7.85;;;21.60;95.10;;;;;;5055523;28;20028;-73
2021/09/15 06:22:08;;;;;;;17.63;8.52;;;21.70;95.10;;;;;;5055324;28;20013;-73
2021/09/15 06:24:34;;;;;;;23.13;8.80;;;21.80;95.20;;;;;;5055487;28;20098;-73
2021/09/15 06:27:00;;;;;;;10.75;8.82;;;21.90;94.90;;;;;;5055427;28;20033;-73
2021/09/15 06:29:26;;;;;;;14.93;9.43;;;21.90;95.40;;;;;;5055267;28;20027;-73
2021/09/15 06:31:52;;;;;;;22.73;9.02;;;22.00;95.50;;;;;;5054909;28;20167;-74
2021/09/15 06:34:17;;;;;;;14.00;10.00;;;22.00;95.20;;;;;;5054647;28;20383;-73
2021/09/15 06:36:43;;;;;;;13.48;9.68;;;22.00;95.60;;;;;;5052903;28;20028;-75
2021/09/15 06:39:09;;;;;;;14.43;8.55;;;22.10;95.40;;;;;;5053303;28;20021;-75
2021/09/15 06:41:35;;;;;;;13.95;9.80;;;22.10;95.00;;;;;;5054085;28;20096;-75
2021/09/15 06:44:01;;;;;;;12.05;9.80;;;22.20;95.20;;;;;;5052619;28;20049;-75
2021/09/15 06:46:27;;;;;;;13.88;8.77;;;22.20;94.90;;;;;;5050889;28;20396;-75
2021/09/15 06:48:52;;;;;;;13.20;9.77;;;22.30;95.00;;;;;;5051154;28;20027;-75
2021/09/15 06:51:18;;;;;;;15.90;9.48;;;22.30;95.00;;;;;;5051820;28;20063;-75
2021/09/15 06:53:44;;;;;;;20.02;10.73;;;22.30;95.20;;;;;;5050913;28;20031;-75
2021/09/15 06:56:10;;;;;;;29.50;18.05;;;22.30;95.20;;;;;;5051856;28;20024;-75
2021/09/15 06:58:36;;;;;;;39.50;23.23;;;22.30;96.00;;;;;;5052381;28;20528;-76
2021/09/15 07:01:02;;;;;;;38.80;21.15;;;22.30;96.30;;;;;;5052841;28;20025;-75
2021/09/15 07:03:28;;;;;;;40.75;23.15;;;22.30;96.30;;;;;;5049432;28;20116;-75
2021/09/15 07:05:53;;;;;;;43.30;23.85;;;22.40;97.30;;;;;;5033355;28;20025;-75
2021/09/15 07:08:25;;;;;;;47.65;25.52;;;22.40;96.90;;;;;;5033299;28;20021;-75
2021/09/15 07:10:55;;;;;;;43.13;24.10;;;22.40;96.90;;;;;;5032946;28;20109;-75
2021/09/15 07:13:23;;;;;;;37.63;23.63;;;22.50;96.90;;;;;;5032752;28;20112;-75
2021/09/15 07:15:49;;;;;;;45.80;23.23;;;22.40;96.50;;;;;;5033139;28;20036;-75
2021/09/15 07:18:15;;;;;;;41.13;22.40;;;22.50;96.60;;;;;;5032976;28;20018;-75
2021/09/15 07:20:41;;;;;;;40.05;23.75;;;22.50;96.20;;;;;;5033161;28;20030;-75
2021/09/15 07:23:06;;;;;;;44.67;25.50;;;22.60;96.30;;;;;;5033272;28;20033;-75
2021/09/15 07:25:32;;;;;;;42.63;24.15;;;22.70;96.10;;;;;;5033127;28;20071;-75
2021/09/15 07:27:58;;;;;;;42.60;24.20;;;22.70;95.90;;;;;;5032904;28;20088;-75
2021/09/15 07:30:24;;;;;;;52.42;25.23;;;22.70;95.90;;;;;;5033017;28;20144;-75
2021/09/15 07:32:50;;;;;;;43.47;23.77;;;22.80;96.00;;;;;;5033006;28;20025;-75
2021/09/15 07:35:15;;;;;;;39.92;21.98;;;22.80;96.30;;;;;;5032741;28;20036;-75
2021/09/15 07:37:41;;;;;;;36.97;23.25;;;22.90;96.50;;;;;;5032884;28;20105;-75
2021/09/15 07:40:08;;;;;;;34.80;21.45;;;22.90;96.10;;;;;;5032832;28;20499;-75
2021/09/15 07:42:34;;;;;;;35.63;21.73;;;22.90;96.00;;;;;;5032713;28;20104;-75
2021/09/15 07:45:00;;;;;;;38.63;22.40;;;23.00;96.00;;;;;;5032810;28;20522;-75
2021/09/15 07:47:26;;;;;;;34.38;20.88;;;23.00;96.30;;;;;;5032550;28;20040;-75
2021/09/15 07:49:51;;;;;;;48.08;23.30;;;23.00;96.20;;;;;;5032657;28;20487;-75
2021/09/15 07:52:17;;;;;;;37.55;22.83;;;23.00;96.70;;;;;;5032744;28;20025;-74
2021/09/15 07:54:43;;;;;;;40.90;23.17;;;23.10;96.80;;;;;;5032492;28;20166;-75
2021/09/15 07:57:09;;;;;;;50.25;24.58;;;23.10;96.60;;;;;;5064370;28;20033;-75
2021/09/15 07:59:35;;;;;;;46.03;23.27;;;23.10;96.30;;;;;;5032681;28;20026;-75
2021/09/15 08:02:00;;;;;;;50.78;25.25;;;23.20;96.00;;;;;;5032464;28;20376;-75
2021/09/15 08:04:26;;;;;;;44.67;23.75;;;23.20;95.60;;;;;;5032306;28;20036;-75
2021/09/15 08:06:52;;;;;;;42.33;23.38;;;23.20;95.50;;;;;;5032479;28;20087;-75
2021/09/15 08:09:17;;;;;;;41.50;22.63;;;23.30;95.30;;;;;;5032098;28;20128;-75
2021/09/15 08:11:43;;;;;;;38.85;20.15;;;23.20;95.50;;;;;;5034660;28;20037;-75
2021/09/15 08:14:09;;;;;;;37.30;21.63;;;23.20;95.20;;;;;;5054028;28;20025;-75
2021/09/15 08:16:35;;;;;;;42.78;21.33;;;23.20;95.00;;;;;;5051964;28;20027;-75
2021/09/15 08:19:02;;;;;;;37.55;20.65;;;23.30;94.70;;;;;;5052155;28;20028;-75
2021/09/15 08:21:28;;;;;;;46.50;21.13;;;23.30;94.40;;;;;;5051832;28;20017;-75
2021/09/15 08:23:54;;;;;;;39.13;20.38;;;23.30;94.50;;;;;;5052080;28;20024;-75
2021/09/15 08:26:20;;;;;;;42.10;22.67;;;23.20;93.60;;;;;;5051883;28;20386;-75
2021/09/15 08:28:46;;;;;;;45.17;21.80;;;23.20;94.00;;;;;;5051850;28;20021;-75
2021/09/15 08:31:12;;;;;;;51.53;21.58;;;23.20;94.20;;;;;;5051624;28;20456;-75
2021/09/15 08:33:38;;;;;;;45.42;23.05;;;23.20;94.20;;;;;;5051849;28;20175;-75
2021/09/15 08:36:04;;;;;;;43.80;23.38;;;23.20;94.30;;;;;;5051701;28;20021;-75
2021/09/15 08:38:30;;;;;;;43.85;23.42;;;23.20;94.10;;;;;;5050419;28;20017;-75
2021/09/15 08:40:56;;;;;;;34.10;21.90;;;23.10;94.30;;;;;;5051701;28;20032;-75
2021/09/15 08:43:22;;;;;;;42.70;23.63;;;23.10;94.70;;;;;;5051529;28;20021;-75
2021/09/15 08:45:48;;;;;;;35.97;22.10;;;23.10;94.70;;;;;;5051579;28;20108;-75
2021/09/15 08:48:19;;;;;;;37.53;23.15;;;23.10;94.60;;;;;;5050445;28;20120;-75
2021/09/15 08:50:51;;;;;;;41.08;24.70;;;23.10;94.70;;;;;;5051701;28;20032;-75
2021/09/15 08:53:18;;;;;;;50.75;24.35;;;23.10;94.70;;;;;;5051719;28;20028;-74
2021/09/15 08:55:46;;;;;;;39.88;22.27;;;23.20;94.90;;;;;;5051340;28;20035;-75
2021/09/15 08:58:16;;;;;;;46.47;22.98;;;23.20;95.00;;;;;;5051459;28;20024;-75
2021/09/15 09:00:43;;;;;;;39.63;22.70;;;23.40;95.50;;;;;;5049992;28;20032;-75
2021/09/15 09:03:09;;;;;;;50.05;25.38;;;23.40;95.90;;;;;;5051494;28;20021;-75
2021/09/15 09:05:36;;;;;;;57.25;24.42;;;23.50;95.90;;;;;;5051487;28;20499;-75
2021/09/15 09:08:02;;;;;;;48.13;25.90;;;23.50;94.90;;;;;;5051263;28;20109;-75
2021/09/15 09:10:33;;;;;;;48.92;25.20;;;23.50;94.30;;;;;;5051357;28;20111;-74
2021/09/15 09:12:59;;;;;;;54.83;25.63;;;23.60;94.40;;;;;;5050047;28;20564;-75
2021/09/15 09:15:26;;;;;;;52.17;24.55;;;23.60;94.80;;;;;;5051285;28;20021;-75
2021/09/15 09:17:57;;;;;;;44.90;26.10;;;23.70;94.80;;;;;;5051244;28;20108;-75
2021/09/15 09:20:28;;;;;;;44.22;24.17;;;23.70;94.30;;;;;;5051181;28;20025;-75
2021/09/15 09:23:08;;;;;;;45.90;24.10;;;23.80;94.10;;;;;;5051174;28;20183;-75
2021/09/15 09:25:36;;;;;;;42.95;23.23;;;23.80;94.30;;;;;;5051143;28;20029;-74
2021/09/15 09:28:30;;;;;;;41.40;24.05;;;23.90;94.10;;;;;;5051336;28;20029;-75
2021/09/15 09:30:58;;;;;;;42.00;23.42;;;24.00;93.50;;;;;;5050753;28;20391;-75
2021/09/15 09:33:24;;;;;;;44.70;22.83;;;24.00;93.60;;;;;;5051074;28;20041;-74
2021/09/15 09:35:51;;;;;;;40.17;22.85;;;24.10;93.80;;;;;;5055207;28;20027;-75
2021/09/15 09:38:28;;;;;;;44.10;25.40;;;24.10;93.60;;;;;;5055152;28;20025;-75
2021/09/15 09:41:07;;;;;;;40.45;23.42;;;24.20;93.90;;;;;;5055306;28;20049;-74
2021/09/15 09:43:38;;;;;;;43.50;23.52;;;24.20;93.40;;;;;;5054927;28;20057;-75
2021/09/15 09:46:06;;;;;;;48.47;26.13;;;24.20;93.00;;;;;;5054899;28;20403;-75
2021/09/15 09:48:44;;;;;;;40.92;24.08;;;24.30;93.10;;;;;;5054870;28;20025;-75
2021/09/15 09:51:31;;;;;;;48.17;25.35;;;24.40;93.40;;;;;;5054852;28;20124;-74
2021/09/15 09:54:20;;;;;;;47.55;26.02;;;24.40;93.40;;;;;;5054212;28;20029;-75
2021/09/15 09:56:48;;;;;;;44.55;24.75;;;24.40;93.30;;;;;;5054303;28;20043;-75
2021/09/15 09:59:15;;;;;;;51.70;28.88;;;24.50;93.60;;;;;;5052725;28;20025;-74
2021/09/15 10:01:47;;;;;;;52.30;28.52;;;24.50;93.10;;;;;;5052954;28;20020;-74
2021/09/15 10:04:20;;;;;;;53.22;27.30;;;24.60;93.30;;;;;;5052344;28;20028;-74
2021/09/15 10:06:47;;;;;;;49.28;27.73;;;24.60;93.20;;;;;;5052700;28;20078;-74
2021/09/15 10:09:14;;;;;;;42.65;25.02;;;24.60;93.10;;;;;;5054076;28;20063;-74
2021/09/15 10:11:41;;;;;;;46.25;25.35;;;24.70;93.60;;;;;;5054527;28;20021;-74
2021/09/15 10:14:13;;;;;;;49.50;25.38;;;24.80;93.00;;;;;;5054550;28;20032;-74
2021/09/15 10:16:45;;;;;;;45.40;27.38;;;24.80;93.10;;;;;;5054306;28;20099;-74
2021/09/15 10:19:15;;;;;;;53.35;27.13;;;24.80;93.10;;;;;;5053502;28;20044;-74
2021/09/15 10:21:41;;;;;;;41.22;24.60;;;24.80;92.80;;;;;;5053394;28;20474;-74
2021/09/15 10:24:06;;;;;;;44.33;24.15;;;24.90;93.00;;;;;;5052433;28;20031;-75
2021/09/15 10:26:39;;;;;;;43.42;25.92;;;24.90;93.20;;;;;;5052199;28;20049;-75
2021/09/15 10:29:14;;;;;;;48.65;27.05;;;25.00;93.20;;;;;;5052316;28;20051;-75
2021/09/15 10:31:52;;;;;;;47.25;25.77;;;25.00;92.30;;;;;;5052073;28;20435;-75
2021/09/15 10:34:36;;;;;;;45.90;26.83;;;25.00;91.70;;;;;;5053702;28;20037;-75
2021/09/15 10:37:12;;;;;;;45.05;25.83;;;25.00;91.70;;;;;;5053878;28;20486;-75
2021/09/15 10:39:57;;;;;;;48.70;26.80;;;25.00;91.90;;;;;;5053882;28;20070;-75
2021/09/15 10:42:50;;;;;;;41.13;24.00;;;25.10;91.70;;;;;;5052543;28;20041;-75
2021/09/15 10:45:17;;;;;;;54.72;27.25;;;25.20;92.00;;;;;;5051368;28;20032;-75
2021/09/15 10:47:45;;;;;;;43.95;25.25;;;25.30;91.70;;;;;;5053807;28;20029;-75
2021/09/15 10:50:32;;;;;;;45.25;22.75;;;25.30;91.30;;;;;;5053615;28;20082;-75
2021/09/15 10:53:06;;;;;;;42.70;23.17;;;25.40;91.30;;;;;;5049905;28;20132;-75
2021/09/15 10:55:50;;;;;;;36.40;20.95;;;25.50;91.40;;;;;;5053694;28;20029;-75
2021/09/15 10:58:24;;;;;;;38.70;22.25;;;25.60;92.10;;;;;;5053476;28;20034;-75
2021/09/15 11:01:01;;;;;;;31.80;16.83;;;25.70;91.00;;;;;;5053677;28;20018;-75
2021/09/15 11:03:51;;;;;;;20.42;14.20;;;25.80;90.70;;;;;;5053317;28;20021;-75
2021/09/15 11:06:17;;;;;;;25.45;15.68;;;25.80;91.00;;;;;;5053368;28;20017;-75
2021/09/15 11:08:48;;;;;;;21.38;12.50;;;25.90;90.90;;;;;;5053405;28;20509;-75
2021/09/15 11:11:19;;;;;;;22.33;12.13;;;25.90;90.60;;;;;;5053339;28;20021;-75
2021/09/15 11:14:09;;;;;;;12.57;8.57;;;25.90;90.20;;;;;;5053204;28;20548;-75
2021/09/15 11:16:39;;;;;;;26.95;14.68;;;25.80;90.40;;;;;;5053103;28;20023;-75
2021/09/15 11:19:16;;;;;;;22.65;14.88;;;25.80;90.50;;;;;;5053205;28;20075;-74
2021/09/15 11:21:48;;;;;;;24.70;13.38;;;25.80;90.70;;;;;;5053176;28;20029;-75
2021/09/15 11:24:19;;;;;;;20.52;11.45;;;25.80;91.00;;;;;;5053284;28;20041;-75
2021/09/15 11:26:51;;;;;;;;;;;25.80;90.80;;;;;;5053471;28;20060;-75
2021/09/15 11:29:41;;;;;;;21.20;11.63;;;25.80;90.70;;;;;;5053140;28;19915;-75
2021/09/15 11:32:10;;;;;;;20.13;12.75;;;25.80;90.60;;;;;;5052854;28;20040;-75
2021/09/15 11:34:38;;;;;;;19.55;11.55;;;25.90;90.30;;;;;;5051643;28;20127;-75
2021/09/15 11:37:04;;;;;;;22.10;11.57;;;25.90;90.90;;;;;;5052982;28;20021;-75
2021/09/15 11:39:30;;;;;;;18.10;11.38;;;26.00;90.60;;;;;;5052801;28;20247;-75
2021/09/15 11:42:03;;;;;;;13.68;8.95;;;26.10;90.70;;;;;;5052856;28;20021;-74
2021/09/15 11:44:29;;;;;;;14.50;9.98;;;26.20;90.40;;;;;;5052600;28;20516;-75
2021/09/15 11:47:01;;;;;;;10.30;7.82;;;26.20;89.70;;;;;;5052778;28;20029;-75
2021/09/15 11:49:31;;;;;;;;;;;26.30;90.40;;;;;;5053157;28;20021;-75
2021/09/15 11:51:58;;;;;;;12.38;6.95;;;26.40;90.80;;;;;;5052699;28;19908;-75
2021/09/15 11:54:26;;;;;;;11.40;6.53;;;26.50;90.10;;;;;;5052418;28;20256;-75
2021/09/15 11:56:53;;;;;;;8.20;6.18;;;26.50;89.30;;;;;;5050537;28;20490;-74
2021/09/15 11:59:20;;;;;;;7.43;6.32;;;26.50;88.30;;;;;;5052517;28;20025;-75
2021/09/15 12:01:48;;;;;;;8.55;5.93;;;26.60;89.40;;;;;;5052528;28;20379;-74
2021/09/15 12:04:20;;;;;;;11.35;6.20;;;26.70;88.60;;;;;;5052228;28;20051;-75
2021/09/15 12:06:47;;;;;;;8.18;6.15;;;26.80;87.50;;;;;;5052447;28;20475;-75
2021/09/15 12:09:14;;;;;;;9.75;5.80;;;26.80;88.40;;;;;;5052096;28;20049;-75
2021/09/15 12:11:41;;;;;;;8.20;6.15;;;26.80;87.20;;;;;;5054710;28;20083;-75
2021/09/15 12:14:09;;;;;;;6.35;5.50;;;26.80;86.80;;;;;;5052270;28;20028;-74
2021/09/15 12:16:40;;;;;;;7.03;5.88;;;26.70;86.30;;;;;;5052225;28;20029;-74
2021/09/15 12:19:16;;;;;;;10.70;6.30;;;26.70;86.80;;;;;;5052110;28;20025;-75
2021/09/15 12:21:45;;;;;;;8.05;6.28;;;26.80;87.70;;;;;;5052164;28;20021;-75
2021/09/15 12:24:10;;;;;;;11.30;7.55;;;26.80;87.40;;;;;;5052055;28;20025;-75
2021/09/15 12:26:36;;;;;;;16.10;6.43;;;26.90;86.40;;;;;;5051799;28;20372;-75
2021/09/15 12:29:20;;;;;;;9.25;6.80;;;26.90;87.00;;;;;;5051994;28;20479;-75
2021/09/15 12:31:47;;;;;;;10.00;6.88;;;27.00;86.90;;;;;;5051742;28;20184;-75
2021/09/15 12:34:17;;;;;;;7.10;5.97;;;27.00;85.50;;;;;;5050497;28;20055;-75
2021/09/15 12:36:43;;;;;;;10.38;6.60;;;27.00;84.70;;;;;;5051669;28;20523;-75
2021/09/15 12:39:15;;;;;;;10.27;6.47;;;26.90;84.60;;;;;;5051793;28;20116;-75
2021/09/15 12:41:58;;;;;;;13.52;7.53;;;27.00;85.30;;;;;;5051565;28;20029;-76
2021/09/15 12:44:34;;;;;;;11.48;7.93;;;27.00;84.70;;;;;;5051727;28;20025;-75